sensor_id;sensor_type;location;lat;lon;timestamp;P1;durP1;ratioP1;P2;durP2;ratioP2
22939;SDS011;11636;52.086;5.090;2023-06-22T00:00:11;6.05;;;4.32;;
22939;SDS011;11636;52.086;5.090;2023-06-22T00:03:05;5.55;;;4.35;;
22939;SDS011;11636;52.086;5.090;2023-06-22T00:05:59;5.90;;;4.25;;
22939;SDS011;11636;52.086;5.090;2023-06-22T00:08:53;6.45;;;4.13;;
22939;SDS011;11636;52.086;5.090;2023-06-22T00:11:40;5.40;;;4.13;;
22939;SDS011;11636;52.086;5.090;2023-06-22T00:14:34;6.63;;;4.78;;
22939;SDS011;11636;52.086;5.090;2023-06-22T00:17:28;6.20;;;4.65;;
22939;SDS011;11636;52.086;5.090;2023-06-22T00:20:15;7.70;;;5.30;;
22939;SDS011;11636;52.086;5.090;2023-06-22T00:23:11;6.82;;;4.47;;
22939;SDS011;11636;52.086;5.090;2023-06-22T00:26:08;6.93;;;5.18;;
22939;SDS011;11636;52.086;5.090;2023-06-22T00:29:02;7.47;;;5.40;;
22939;SDS011;11636;52.086;5.090;2023-06-22T00:31:56;7.10;;;5.20;;
22939;SDS011;11636;52.086;5.090;2023-06-22T00:34:43;7.90;;;5.22;;
22939;SDS011;11636;52.086;5.090;2023-06-22T00:37:37;7.15;;;5.50;;
22939;SDS011;11636;52.086;5.090;2023-06-22T00:40:28;6.70;;;5.07;;
22939;SDS011;11636;52.086;5.090;2023-06-22T00:43:25;7.75;;;5.60;;
22939;SDS011;11636;52.086;5.090;2023-06-22T00:46:12;7.45;;;5.95;;
22939;SDS011;11636;52.086;5.090;2023-06-22T00:49:06;9.10;;;7.20;;
22939;SDS011;11636;52.086;5.090;2023-06-22T00:52:00;9.05;;;7.20;;
22939;SDS011;11636;52.086;5.090;2023-06-22T00:54:55;8.93;;;6.30;;
22939;SDS011;11636;52.086;5.090;2023-06-22T00:57:45;8.98;;;6.45;;
22939;SDS011;11636;52.086;5.090;2023-06-22T01:00:40;7.90;;;6.25;;
22939;SDS011;11636;52.086;5.090;2023-06-22T01:03:34;9.00;;;6.65;;
22939;SDS011;11636;52.086;5.090;2023-06-22T01:06:25;8.82;;;6.45;;
22939;SDS011;11636;52.086;5.090;2023-06-22T01:09:24;9.32;;;6.75;;
22939;SDS011;11636;52.086;5.090;2023-06-22T01:12:16;8.88;;;6.10;;
22939;SDS011;11636;52.086;5.090;2023-06-22T01:15:13;7.90;;;6.13;;
22939;SDS011;11636;52.086;5.090;2023-06-22T01:18:05;8.63;;;6.38;;
22939;SDS011;11636;52.086;5.090;2023-06-22T01:21:01;8.93;;;6.75;;
22939;SDS011;11636;52.086;5.090;2023-06-22T01:24:05;10.32;;;7.20;;
22939;SDS011;11636;52.086;5.090;2023-06-22T01:27:07;10.30;;;7.18;;
22939;SDS011;11636;52.086;5.090;2023-06-22T01:30:09;9.38;;;6.72;;
22939;SDS011;11636;52.086;5.090;2023-06-22T01:32:58;9.15;;;7.28;;
22939;SDS011;11636;52.086;5.090;2023-06-22T01:35:53;9.23;;;7.55;;
22939;SDS011;11636;52.086;5.090;2023-06-22T01:38:41;10.23;;;8.18;;
22939;SDS011;11636;52.086;5.090;2023-06-22T01:41:36;10.38;;;8.00;;
22939;SDS011;11636;52.086;5.090;2023-06-22T01:44:32;11.10;;;8.43;;
22939;SDS011;11636;52.086;5.090;2023-06-22T01:47:21;12.57;;;9.35;;
22939;SDS011;11636;52.086;5.090;2023-06-22T01:50:15;14.65;;;10.60;;
22939;SDS011;11636;52.086;5.090;2023-06-22T01:53:03;11.43;;;8.82;;
22939;SDS011;11636;52.086;5.090;2023-06-22T01:55:58;11.98;;;8.40;;
22939;SDS011;11636;52.086;5.090;2023-06-22T02:02:13;10.77;;;8.20;;
22939;SDS011;11636;52.086;5.090;2023-06-22T02:05:10;10.90;;;9.05;;
22939;SDS011;11636;52.086;5.090;2023-06-22T02:08:18;12.27;;;8.50;;
22939;SDS011;11636;52.086;5.090;2023-06-22T02:11:13;13.60;;;8.95;;
22939;SDS011;11636;52.086;5.090;2023-06-22T02:14:09;12.05;;;8.27;;
22939;SDS011;11636;52.086;5.090;2023-06-22T02:17:08;9.45;;;8.00;;
22939;SDS011;11636;52.086;5.090;2023-06-22T02:19:56;12.00;;;8.73;;
22939;SDS011;11636;52.086;5.090;2023-06-22T02:22:50;11.70;;;9.13;;
22939;SDS011;11636;52.086;5.090;2023-06-22T02:25:43;13.07;;;9.45;;
22939;SDS011;11636;52.086;5.090;2023-06-22T02:28:37;11.98;;;9.63;;
22939;SDS011;11636;52.086;5.090;2023-06-22T02:31:31;10.77;;;8.38;;
22939;SDS011;11636;52.086;5.090;2023-06-22T02:34:19;12.32;;;8.82;;
22939;SDS011;11636;52.086;5.090;2023-06-22T02:37:13;10.43;;;8.60;;
22939;SDS011;11636;52.086;5.090;2023-06-22T02:40:09;12.85;;;9.65;;
22939;SDS011;11636;52.086;5.090;2023-06-22T02:42:57;13.23;;;9.65;;
22939;SDS011;11636;52.086;5.090;2023-06-22T02:45:55;12.02;;;8.88;;
22939;SDS011;11636;52.086;5.090;2023-06-22T02:48:42;10.23;;;8.45;;
22939;SDS011;11636;52.086;5.090;2023-06-22T02:51:37;11.10;;;8.95;;
22939;SDS011;11636;52.086;5.090;2023-06-22T02:54:26;13.40;;;9.82;;
22939;SDS011;11636;52.086;5.090;2023-06-22T02:57:19;12.63;;;9.18;;
22939;SDS011;11636;52.086;5.090;2023-06-22T03:00:14;10.85;;;8.95;;
22939;SDS011;11636;52.086;5.090;2023-06-22T03:03:11;12.55;;;9.32;;
22939;SDS011;11636;52.086;5.090;2023-06-22T03:05:58;12.05;;;9.25;;
22939;SDS011;11636;52.086;5.090;2023-06-22T03:08:59;11.23;;;8.13;;
22939;SDS011;11636;52.086;5.090;2023-06-22T03:11:47;8.88;;;7.25;;
22939;SDS011;11636;52.086;5.090;2023-06-22T03:14:40;9.82;;;7.70;;
22939;SDS011;11636;52.086;5.090;2023-06-22T03:17:35;10.60;;;8.40;;
22939;SDS011;11636;52.086;5.090;2023-06-22T03:20:22;11.02;;;8.70;;
22939;SDS011;11636;52.086;5.090;2023-06-22T03:23:17;10.43;;;7.65;;
22939;SDS011;11636;52.086;5.090;2023-06-22T03:26:04;11.77;;;7.85;;
22939;SDS011;11636;52.086;5.090;2023-06-22T03:28:58;9.70;;;7.65;;
22939;SDS011;11636;52.086;5.090;2023-06-22T03:31:52;10.73;;;8.38;;
22939;SDS011;11636;52.086;5.090;2023-06-22T03:34:46;11.27;;;8.55;;
22939;SDS011;11636;52.086;5.090;2023-06-22T03:37:40;10.25;;;8.45;;
22939;SDS011;11636;52.086;5.090;2023-06-22T03:40:28;12.75;;;9.40;;
22939;SDS011;11636;52.086;5.090;2023-06-22T03:43:22;11.95;;;9.02;;
22939;SDS011;11636;52.086;5.090;2023-06-22T03:46:16;11.40;;;9.10;;
22939;SDS011;11636;52.086;5.090;2023-06-22T03:49:04;11.32;;;9.50;;
22939;SDS011;11636;52.086;5.090;2023-06-22T03:51:57;12.27;;;9.27;;
22939;SDS011;11636;52.086;5.090;2023-06-22T03:54:45;11.93;;;9.15;;
22939;SDS011;11636;52.086;5.090;2023-06-22T03:57:38;11.55;;;9.15;;
22939;SDS011;11636;52.086;5.090;2023-06-22T04:00:32;10.25;;;8.23;;
22939;SDS011;11636;52.086;5.090;2023-06-22T04:03:20;11.23;;;8.90;;
22939;SDS011;11636;52.086;5.090;2023-06-22T04:06:14;11.75;;;9.40;;
22939;SDS011;11636;52.086;5.090;2023-06-22T04:09:07;9.82;;;8.52;;
22939;SDS011;11636;52.086;5.090;2023-06-22T04:12:02;12.48;;;8.98;;
22939;SDS011;11636;52.086;5.090;2023-06-22T04:14:49;11.50;;;8.32;;
22939;SDS011;11636;52.086;5.090;2023-06-22T04:17:42;10.95;;;8.60;;
22939;SDS011;11636;52.086;5.090;2023-06-22T04:20:37;12.65;;;10.73;;
22939;SDS011;11636;52.086;5.090;2023-06-22T04:23:30;12.88;;;10.15;;
22939;SDS011;11636;52.086;5.090;2023-06-22T04:26:24;11.90;;;8.75;;
22939;SDS011;11636;52.086;5.090;2023-06-22T04:29:18;10.30;;;8.35;;
22939;SDS011;11636;52.086;5.090;2023-06-22T04:32:12;11.95;;;8.77;;
22939;SDS011;11636;52.086;5.090;2023-06-22T04:35:13;12.30;;;8.38;;
22939;SDS011;11636;52.086;5.090;2023-06-22T04:38:16;9.98;;;8.15;;
22939;SDS011;11636;52.086;5.090;2023-06-22T04:41:03;12.02;;;8.65;;
22939;SDS011;11636;52.086;5.090;2023-06-22T04:43:57;11.13;;;8.68;;
22939;SDS011;11636;52.086;5.090;2023-06-22T04:46:46;11.30;;;8.60;;
22939;SDS011;11636;52.086;5.090;2023-06-22T04:49:47;12.85;;;10.15;;
22939;SDS011;11636;52.086;5.090;2023-06-22T04:52:34;11.48;;;9.77;;
22939;SDS011;11636;52.086;5.090;2023-06-22T04:55:27;11.23;;;8.90;;
22939;SDS011;11636;52.086;5.090;2023-06-22T04:58:15;10.38;;;7.93;;
22939;SDS011;11636;52.086;5.090;2023-06-22T05:01:09;9.55;;;7.72;;
22939;SDS011;11636;52.086;5.090;2023-06-22T05:03:57;9.15;;;7.47;;
22939;SDS011;11636;52.086;5.090;2023-06-22T05:06:54;9.77;;;7.35;;
22939;SDS011;11636;52.086;5.090;2023-06-22T05:09:48;9.20;;;7.13;;
22939;SDS011;11636;52.086;5.090;2023-06-22T05:12:35;9.57;;;7.28;;
22939;SDS011;11636;52.086;5.090;2023-06-22T05:15:29;7.80;;;6.70;;
22939;SDS011;11636;52.086;5.090;2023-06-22T05:18:19;8.93;;;7.47;;
22939;SDS011;11636;52.086;5.090;2023-06-22T05:21:16;11.00;;;8.38;;
22939;SDS011;11636;52.086;5.090;2023-06-22T05:24:04;9.98;;;8.00;;
22939;SDS011;11636;52.086;5.090;2023-06-22T05:26:58;10.50;;;8.40;;
22939;SDS011;11636;52.086;5.090;2023-06-22T05:29:45;11.43;;;8.52;;
22939;SDS011;11636;52.086;5.090;2023-06-22T05:32:39;10.43;;;8.05;;
22939;SDS011;11636;52.086;5.090;2023-06-22T05:35:33;11.38;;;9.15;;
22939;SDS011;11636;52.086;5.090;2023-06-22T05:38:20;10.63;;;8.50;;
22939;SDS011;11636;52.086;5.090;2023-06-22T05:41:14;10.15;;;8.30;;
22939;SDS011;11636;52.086;5.090;2023-06-22T05:44:08;12.55;;;9.65;;
22939;SDS011;11636;52.086;5.090;2023-06-22T05:46:55;10.25;;;8.38;;
22939;SDS011;11636;52.086;5.090;2023-06-22T05:49:49;8.82;;;7.47;;
22939;SDS011;11636;52.086;5.090;2023-06-22T05:52:43;8.35;;;6.65;;
22939;SDS011;11636;52.086;5.090;2023-06-22T05:55:37;8.57;;;6.40;;
22939;SDS011;11636;52.086;5.090;2023-06-22T05:58:24;7.78;;;6.32;;
22939;SDS011;11636;52.086;5.090;2023-06-22T06:01:18;7.55;;;6.55;;
22939;SDS011;11636;52.086;5.090;2023-06-22T06:04:05;9.18;;;6.50;;
22939;SDS011;11636;52.086;5.090;2023-06-22T06:07:01;12.43;;;8.95;;
22939;SDS011;11636;52.086;5.090;2023-06-22T06:09:55;9.75;;;7.55;;
22939;SDS011;11636;52.086;5.090;2023-06-22T06:12:42;7.95;;;6.75;;
22939;SDS011;11636;52.086;5.090;2023-06-22T06:15:36;8.70;;;6.47;;
22939;SDS011;11636;52.086;5.090;2023-06-22T06:18:30;7.72;;;6.70;;
22939;SDS011;11636;52.086;5.090;2023-06-22T06:21:24;10.23;;;7.97;;
22939;SDS011;11636;52.086;5.090;2023-06-22T06:24:11;9.48;;;7.68;;
22939;SDS011;11636;52.086;5.090;2023-06-22T06:27:05;9.75;;;8.13;;
22939;SDS011;11636;52.086;5.090;2023-06-22T06:29:52;8.07;;;6.65;;
22939;SDS011;11636;52.086;5.090;2023-06-22T06:32:46;8.00;;;6.13;;
22939;SDS011;11636;52.086;5.090;2023-06-22T06:35:40;5.25;;;4.43;;
22939;SDS011;11636;52.086;5.090;2023-06-22T06:38:27;8.35;;;6.63;;
22939;SDS011;11636;52.086;5.090;2023-06-22T06:41:21;7.57;;;5.78;;
22939;SDS011;11636;52.086;5.090;2023-06-22T06:44:15;6.72;;;5.53;;
22939;SDS011;11636;52.086;5.090;2023-06-22T06:47:02;10.40;;;9.23;;
22939;SDS011;11636;52.086;5.090;2023-06-22T06:49:56;13.35;;;10.05;;
22939;SDS011;11636;52.086;5.090;2023-06-22T06:52:43;8.75;;;6.75;;
22939;SDS011;11636;52.086;5.090;2023-06-22T06:55:37;10.13;;;8.38;;
22939;SDS011;11636;52.086;5.090;2023-06-22T06:58:24;10.23;;;7.95;;
22939;SDS011;11636;52.086;5.090;2023-06-22T07:01:18;8.60;;;7.13;;
22939;SDS011;11636;52.086;5.090;2023-06-22T07:04:13;8.63;;;7.05;;
22939;SDS011;11636;52.086;5.090;2023-06-22T07:07:01;9.55;;;7.30;;
22939;SDS011;11636;52.086;5.090;2023-06-22T07:09:56;13.13;;;10.13;;
22939;SDS011;11636;52.086;5.090;2023-06-22T07:12:52;9.20;;;7.72;;
22939;SDS011;11636;52.086;5.090;2023-06-22T07:15:46;9.70;;;8.35;;
22939;SDS011;11636;52.086;5.090;2023-06-22T07:18:40;11.68;;;7.82;;
22939;SDS011;11636;52.086;5.090;2023-06-22T07:21:34;9.25;;;7.00;;
22939;SDS011;11636;52.086;5.090;2023-06-22T07:24:21;8.10;;;6.50;;
22939;SDS011;11636;52.086;5.090;2023-06-22T07:27:16;10.95;;;9.40;;
22939;SDS011;11636;52.086;5.090;2023-06-22T07:30:06;10.05;;;7.65;;
22939;SDS011;11636;52.086;5.090;2023-06-22T07:33:00;11.95;;;10.13;;
22939;SDS011;11636;52.086;5.090;2023-06-22T07:35:50;13.13;;;10.90;;
22939;SDS011;11636;52.086;5.090;2023-06-22T07:38:45;8.48;;;6.97;;
22939;SDS011;11636;52.086;5.090;2023-06-22T07:41:33;9.50;;;7.25;;
22939;SDS011;11636;52.086;5.090;2023-06-22T07:44:27;8.25;;;6.57;;
22939;SDS011;11636;52.086;5.090;2023-06-22T07:47:14;7.43;;;6.22;;
22939;SDS011;11636;52.086;5.090;2023-06-22T07:50:08;6.47;;;5.40;;
22939;SDS011;11636;52.086;5.090;2023-06-22T07:53:03;6.32;;;5.03;;
22939;SDS011;11636;52.086;5.090;2023-06-22T07:55:50;9.13;;;7.60;;
22939;SDS011;11636;52.086;5.090;2023-06-22T07:58:44;8.88;;;6.80;;
22939;SDS011;11636;52.086;5.090;2023-06-22T08:01:32;8.05;;;6.53;;
22939;SDS011;11636;52.086;5.090;2023-06-22T08:04:26;8.70;;;6.63;;
22939;SDS011;11636;52.086;5.090;2023-06-22T08:07:22;8.65;;;6.30;;
22939;SDS011;11636;52.086;5.090;2023-06-22T08:10:12;9.25;;;7.60;;
22939;SDS011;11636;52.086;5.090;2023-06-22T08:13:06;7.90;;;6.70;;
22939;SDS011;11636;52.086;5.090;2023-06-22T08:16:00;8.05;;;6.32;;
22939;SDS011;11636;52.086;5.090;2023-06-22T08:18:47;6.20;;;5.00;;
22939;SDS011;11636;52.086;5.090;2023-06-22T08:21:41;6.22;;;5.00;;
22939;SDS011;11636;52.086;5.090;2023-06-22T08:24:28;7.43;;;5.82;;
22939;SDS011;11636;52.086;5.090;2023-06-22T08:27:23;6.15;;;5.20;;
22939;SDS011;11636;52.086;5.090;2023-06-22T08:30:17;6.85;;;5.05;;
22939;SDS011;11636;52.086;5.090;2023-06-22T08:33:07;6.95;;;5.30;;
22939;SDS011;11636;52.086;5.090;2023-06-22T08:36:13;7.50;;;6.40;;
22939;SDS011;11636;52.086;5.090;2023-06-22T08:39:07;5.50;;;4.40;;
22939;SDS011;11636;52.086;5.090;2023-06-22T08:42:01;5.95;;;4.90;;
22939;SDS011;11636;52.086;5.090;2023-06-22T08:44:48;7.07;;;4.65;;
22939;SDS011;11636;52.086;5.090;2023-06-22T08:47:42;6.22;;;4.70;;
22939;SDS011;11636;52.086;5.090;2023-06-22T08:50:36;5.82;;;4.20;;
22939;SDS011;11636;52.086;5.090;2023-06-22T08:53:30;9.55;;;8.05;;
22939;SDS011;11636;52.086;5.090;2023-06-22T08:56:17;7.28;;;5.45;;
22939;SDS011;11636;52.086;5.090;2023-06-22T08:59:12;6.10;;;5.18;;
22939;SDS011;11636;52.086;5.090;2023-06-22T09:02:06;7.78;;;5.93;;
22939;SDS011;11636;52.086;5.090;2023-06-22T09:05:03;6.60;;;5.40;;
22939;SDS011;11636;52.086;5.090;2023-06-22T09:07:51;8.93;;;7.60;;
22939;SDS011;11636;52.086;5.090;2023-06-22T09:10:47;5.85;;;4.78;;
22939;SDS011;11636;52.086;5.090;2023-06-22T09:13:34;5.10;;;4.15;;
22939;SDS011;11636;52.086;5.090;2023-06-22T09:16:28;8.00;;;6.25;;
22939;SDS011;11636;52.086;5.090;2023-06-22T09:19:15;8.05;;;5.40;;
22939;SDS011;11636;52.086;5.090;2023-06-22T09:22:09;5.70;;;3.97;;
22939;SDS011;11636;52.086;5.090;2023-06-22T09:25:04;7.90;;;5.18;;
22939;SDS011;11636;52.086;5.090;2023-06-22T09:27:58;9.48;;;5.97;;
22939;SDS011;11636;52.086;5.090;2023-06-22T09:30:45;9.00;;;6.22;;
22939;SDS011;11636;52.086;5.090;2023-06-22T09:33:40;9.27;;;5.47;;
22939;SDS011;11636;52.086;5.090;2023-06-22T09:36:34;6.45;;;4.22;;
22939;SDS011;11636;52.086;5.090;2023-06-22T09:39:28;4.93;;;3.60;;
22939;SDS011;11636;52.086;5.090;2023-06-22T09:42:22;4.38;;;3.22;;
22939;SDS011;11636;52.086;5.090;2023-06-22T09:45:09;5.30;;;3.30;;
22939;SDS011;11636;52.086;5.090;2023-06-22T09:48:03;4.28;;;3.63;;
22939;SDS011;11636;52.086;5.090;2023-06-22T09:50:50;4.28;;;3.10;;
22939;SDS011;11636;52.086;5.090;2023-06-22T09:53:44;5.55;;;3.30;;
22939;SDS011;11636;52.086;5.090;2023-06-22T09:56:31;3.72;;;3.10;;
22939;SDS011;11636;52.086;5.090;2023-06-22T09:59:25;5.80;;;4.78;;
22939;SDS011;11636;52.086;5.090;2023-06-22T10:02:19;4.88;;;3.80;;
22939;SDS011;11636;52.086;5.090;2023-06-22T10:05:13;4.60;;;3.88;;
22939;SDS011;11636;52.086;5.090;2023-06-22T10:08:01;4.45;;;3.50;;
22939;SDS011;11636;52.086;5.090;2023-06-22T10:10:55;7.28;;;5.80;;
22939;SDS011;11636;52.086;5.090;2023-06-22T10:13:42;7.13;;;5.03;;
22939;SDS011;11636;52.086;5.090;2023-06-22T10:16:36;8.13;;;6.90;;
22939;SDS011;11636;52.086;5.090;2023-06-22T10:19:23;7.53;;;5.25;;
22939;SDS011;11636;52.086;5.090;2023-06-22T10:22:17;6.63;;;5.40;;
22939;SDS011;11636;52.086;5.090;2023-06-22T10:25:04;6.53;;;5.30;;
22939;SDS011;11636;52.086;5.090;2023-06-22T10:27:59;6.90;;;5.00;;
22939;SDS011;11636;52.086;5.090;2023-06-22T10:30:46;5.82;;;4.53;;
22939;SDS011;11636;52.086;5.090;2023-06-22T10:33:40;6.00;;;5.05;;
22939;SDS011;11636;52.086;5.090;2023-06-22T10:36:29;4.03;;;3.40;;
22939;SDS011;11636;52.086;5.090;2023-06-22T10:39:23;4.70;;;3.63;;
22939;SDS011;11636;52.086;5.090;2023-06-22T10:42:17;4.28;;;2.97;;
22939;SDS011;11636;52.086;5.090;2023-06-22T10:45:05;5.18;;;4.13;;
22939;SDS011;11636;52.086;5.090;2023-06-22T10:47:59;8.73;;;6.43;;
22939;SDS011;11636;52.086;5.090;2023-06-22T10:50:46;5.55;;;4.07;;
22939;SDS011;11636;52.086;5.090;2023-06-22T10:53:40;5.32;;;3.38;;
22939;SDS011;11636;52.086;5.090;2023-06-22T10:56:27;3.80;;;3.15;;
22939;SDS011;11636;52.086;5.090;2023-06-22T10:59:21;4.32;;;3.60;;
22939;SDS011;11636;52.086;5.090;2023-06-22T11:02:10;3.97;;;3.08;;
22939;SDS011;11636;52.086;5.090;2023-06-22T11:05:04;4.65;;;3.70;;
22939;SDS011;11636;52.086;5.090;2023-06-22T11:07:52;5.35;;;3.80;;
22939;SDS011;11636;52.086;5.090;2023-06-22T11:10:46;5.07;;;3.58;;
22939;SDS011;11636;52.086;5.090;2023-06-22T11:13:40;4.30;;;3.33;;
22939;SDS011;11636;52.086;5.090;2023-06-22T11:16:34;8.32;;;6.30;;
22939;SDS011;11636;52.086;5.090;2023-06-22T11:19:28;5.40;;;3.80;;
22939;SDS011;11636;52.086;5.090;2023-06-22T11:22:16;4.93;;;3.03;;
22939;SDS011;11636;52.086;5.090;2023-06-22T11:25:09;4.20;;;3.03;;
22939;SDS011;11636;52.086;5.090;2023-06-22T11:28:05;4.10;;;3.17;;
22939;SDS011;11636;52.086;5.090;2023-06-22T11:30:59;4.40;;;3.20;;
22939;SDS011;11636;52.086;5.090;2023-06-22T11:34:11;4.05;;;3.38;;
22939;SDS011;11636;52.086;5.090;2023-06-22T11:36:58;4.35;;;2.90;;
22939;SDS011;11636;52.086;5.090;2023-06-22T11:39:52;5.57;;;3.97;;
22939;SDS011;11636;52.086;5.090;2023-06-22T11:42:52;6.97;;;5.15;;
22939;SDS011;11636;52.086;5.090;2023-06-22T11:45:46;5.72;;;4.28;;
22939;SDS011;11636;52.086;5.090;2023-06-22T11:48:40;9.57;;;6.43;;
22939;SDS011;11636;52.086;5.090;2023-06-22T11:51:34;5.28;;;4.32;;
22939;SDS011;11636;52.086;5.090;2023-06-22T11:54:22;5.82;;;4.28;;
22939;SDS011;11636;52.086;5.090;2023-06-22T11:57:15;6.13;;;4.25;;
22939;SDS011;11636;52.086;5.090;2023-06-22T12:00:03;5.72;;;4.22;;
22939;SDS011;11636;52.086;5.090;2023-06-22T12:03:09;7.95;;;6.10;;
22939;SDS011;11636;52.086;5.090;2023-06-22T12:05:59;8.13;;;6.68;;
22939;SDS011;11636;52.086;5.090;2023-06-22T12:08:53;9.68;;;6.50;;
22939;SDS011;11636;52.086;5.090;2023-06-22T12:11:41;7.03;;;5.28;;
22939;SDS011;11636;52.086;5.090;2023-06-22T12:14:34;7.45;;;6.15;;
22939;SDS011;11636;52.086;5.090;2023-06-22T12:17:28;8.95;;;6.68;;
22939;SDS011;11636;52.086;5.090;2023-06-22T12:20:16;6.78;;;5.13;;
22939;SDS011;11636;52.086;5.090;2023-06-22T12:23:11;7.38;;;5.07;;
22939;SDS011;11636;52.086;5.090;2023-06-22T12:26:05;7.38;;;4.93;;
22939;SDS011;11636;52.086;5.090;2023-06-22T12:28:53;6.78;;;5.00;;
22939;SDS011;11636;52.086;5.090;2023-06-22T12:31:46;6.18;;;4.80;;
22939;SDS011;11636;52.086;5.090;2023-06-22T12:34:34;6.38;;;5.35;;
22939;SDS011;11636;52.086;5.090;2023-06-22T12:37:27;5.03;;;4.00;;
22939;SDS011;11636;52.086;5.090;2023-06-22T12:40:15;6.80;;;4.70;;
22939;SDS011;11636;52.086;5.090;2023-06-22T12:43:08;6.78;;;4.55;;
22939;SDS011;11636;52.086;5.090;2023-06-22T12:45:56;5.78;;;4.40;;
22939;SDS011;11636;52.086;5.090;2023-06-22T12:48:50;8.05;;;6.25;;
22939;SDS011;11636;52.086;5.090;2023-06-22T12:51:41;7.07;;;5.88;;
22939;SDS011;11636;52.086;5.090;2023-06-22T12:54:35;7.35;;;5.13;;
22939;SDS011;11636;52.086;5.090;2023-06-22T12:57:40;7.78;;;6.18;;
22939;SDS011;11636;52.086;5.090;2023-06-22T13:00:33;8.10;;;6.30;;
22939;SDS011;11636;52.086;5.090;2023-06-22T13:03:21;7.53;;;6.32;;
22939;SDS011;11636;52.086;5.090;2023-06-22T13:06:15;11.35;;;7.53;;
22939;SDS011;11636;52.086;5.090;2023-06-22T13:09:02;10.18;;;8.02;;
22939;SDS011;11636;52.086;5.090;2023-06-22T13:12:00;8.93;;;7.15;;
22939;SDS011;11636;52.086;5.090;2023-06-22T13:14:48;6.82;;;5.22;;
22939;SDS011;11636;52.086;5.090;2023-06-22T13:17:41;7.78;;;6.07;;
22939;SDS011;11636;52.086;5.090;2023-06-22T13:20:35;8.18;;;6.78;;
22939;SDS011;11636;52.086;5.090;2023-06-22T13:23:23;8.43;;;6.55;;
22939;SDS011;11636;52.086;5.090;2023-06-22T13:26:16;7.68;;;6.88;;
22939;SDS011;11636;52.086;5.090;2023-06-22T13:29:04;11.48;;;7.60;;
22939;SDS011;11636;52.086;5.090;2023-06-22T13:31:58;10.38;;;7.88;;
22939;SDS011;11636;52.086;5.090;2023-06-22T13:34:46;9.45;;;7.90;;
22939;SDS011;11636;52.086;5.090;2023-06-22T13:37:39;9.65;;;7.90;;
22939;SDS011;11636;52.086;5.090;2023-06-22T13:40:33;12.35;;;10.88;;
22939;SDS011;11636;52.086;5.090;2023-06-22T13:43:27;14.55;;;12.90;;
22939;SDS011;11636;52.086;5.090;2023-06-22T13:46:15;12.18;;;10.27;;
22939;SDS011;11636;52.086;5.090;2023-06-22T13:49:09;10.85;;;9.32;;
22939;SDS011;11636;52.086;5.090;2023-06-22T13:52:03;11.18;;;9.07;;
22939;SDS011;11636;52.086;5.090;2023-06-22T13:54:56;11.77;;;10.57;;
22939;SDS011;11636;52.086;5.090;2023-06-22T13:57:44;12.70;;;10.93;;
22939;SDS011;11636;52.086;5.090;2023-06-22T14:00:37;11.93;;;10.63;;
22939;SDS011;11636;52.086;5.090;2023-06-22T14:03:31;13.35;;;11.32;;
22939;SDS011;11636;52.086;5.090;2023-06-22T14:06:25;11.60;;;10.18;;
22939;SDS011;11636;52.086;5.090;2023-06-22T14:09:19;13.02;;;10.35;;
22939;SDS011;11636;52.086;5.090;2023-06-22T14:12:14;14.02;;;12.52;;
22939;SDS011;11636;52.086;5.090;2023-06-22T14:15:01;12.95;;;11.43;;
22939;SDS011;11636;52.086;5.090;2023-06-22T14:17:54;13.75;;;12.25;;
22939;SDS011;11636;52.086;5.090;2023-06-22T14:20:49;15.35;;;13.82;;
22939;SDS011;11636;52.086;5.090;2023-06-22T14:23:42;11.65;;;9.82;;
22939;SDS011;11636;52.086;5.090;2023-06-22T14:26:35;12.10;;;10.65;;
22939;SDS011;11636;52.086;5.090;2023-06-22T14:29:29;14.18;;;10.85;;
22939;SDS011;11636;52.086;5.090;2023-06-22T14:32:17;10.70;;;9.60;;
22939;SDS011;11636;52.086;5.090;2023-06-22T14:35:11;11.98;;;9.80;;
22939;SDS011;11636;52.086;5.090;2023-06-22T14:37:58;12.15;;;9.73;;
22939;SDS011;11636;52.086;5.090;2023-06-22T14:40:51;10.48;;;9.13;;
22939;SDS011;11636;52.086;5.090;2023-06-22T14:43:59;13.23;;;11.48;;
22939;SDS011;11636;52.086;5.090;2023-06-22T14:46:52;9.63;;;8.63;;
22939;SDS011;11636;52.086;5.090;2023-06-22T14:49:40;10.38;;;9.23;;
22939;SDS011;11636;52.086;5.090;2023-06-22T14:52:34;9.32;;;8.43;;
22939;SDS011;11636;52.086;5.090;2023-06-22T14:55:21;12.13;;;10.45;;
22939;SDS011;11636;52.086;5.090;2023-06-22T14:58:14;11.05;;;9.23;;
22939;SDS011;11636;52.086;5.090;2023-06-22T15:01:04;12.93;;;11.02;;
22939;SDS011;11636;52.086;5.090;2023-06-22T15:04:01;13.18;;;10.85;;
22939;SDS011;11636;52.086;5.090;2023-06-22T15:06:49;12.18;;;10.00;;
22939;SDS011;11636;52.086;5.090;2023-06-22T15:09:43;14.15;;;12.45;;
22939;SDS011;11636;52.086;5.090;2023-06-22T15:12:31;13.00;;;11.10;;
22939;SDS011;11636;52.086;5.090;2023-06-22T15:15:32;13.32;;;11.93;;
22939;SDS011;11636;52.086;5.090;2023-06-22T15:18:26;13.68;;;11.60;;
22939;SDS011;11636;52.086;5.090;2023-06-22T15:21:19;11.45;;;10.25;;
22939;SDS011;11636;52.086;5.090;2023-06-22T15:24:14;16.20;;;14.30;;
22939;SDS011;11636;52.086;5.090;2023-06-22T15:27:02;14.95;;;12.88;;
22939;SDS011;11636;52.086;5.090;2023-06-22T15:29:56;13.50;;;11.90;;
22939;SDS011;11636;52.086;5.090;2023-06-22T15:32:50;12.23;;;10.93;;
22939;SDS011;11636;52.086;5.090;2023-06-22T15:35:37;12.38;;;10.52;;
22939;SDS011;11636;52.086;5.090;2023-06-22T15:38:31;11.95;;;10.80;;
22939;SDS011;11636;52.086;5.090;2023-06-22T15:41:19;12.95;;;11.63;;
22939;SDS011;11636;52.086;5.090;2023-06-22T15:44:12;12.32;;;10.82;;
22939;SDS011;11636;52.086;5.090;2023-06-22T15:47:01;11.32;;;9.98;;
22939;SDS011;11636;52.086;5.090;2023-06-22T15:49:55;13.98;;;12.15;;
22939;SDS011;11636;52.086;5.090;2023-06-22T15:52:42;15.63;;;13.02;;
22939;SDS011;11636;52.086;5.090;2023-06-22T15:55:40;13.32;;;11.93;;
22939;SDS011;11636;52.086;5.090;2023-06-22T15:58:27;11.23;;;10.05;;
22939;SDS011;11636;52.086;5.090;2023-06-22T16:01:35;10.35;;;9.00;;
22939;SDS011;11636;52.086;5.090;2023-06-22T16:04:36;9.68;;;8.07;;
22939;SDS011;11636;52.086;5.090;2023-06-22T16:07:30;9.07;;;8.18;;
22939;SDS011;11636;52.086;5.090;2023-06-22T16:10:18;8.75;;;7.85;;
22939;SDS011;11636;52.086;5.090;2023-06-22T16:13:13;7.82;;;6.90;;
22939;SDS011;11636;52.086;5.090;2023-06-22T16:16:01;9.07;;;7.55;;
22939;SDS011;11636;52.086;5.090;2023-06-22T16:18:56;10.30;;;9.15;;
22939;SDS011;11636;52.086;5.090;2023-06-22T16:21:43;8.82;;;7.93;;
22939;SDS011;11636;52.086;5.090;2023-06-22T16:24:37;9.77;;;8.68;;
22939;SDS011;11636;52.086;5.090;2023-06-22T16:27:24;10.73;;;9.32;;
22939;SDS011;11636;52.086;5.090;2023-06-22T16:30:18;11.15;;;9.40;;
22939;SDS011;11636;52.086;5.090;2023-06-22T16:33:05;10.18;;;8.93;;
22939;SDS011;11636;52.086;5.090;2023-06-22T16:35:59;9.45;;;8.18;;
22939;SDS011;11636;52.086;5.090;2023-06-22T16:38:46;10.18;;;8.68;;
22939;SDS011;11636;52.086;5.090;2023-06-22T16:41:40;11.32;;;10.23;;
22939;SDS011;11636;52.086;5.090;2023-06-22T16:44:34;13.02;;;11.63;;
22939;SDS011;11636;52.086;5.090;2023-06-22T16:47:28;14.38;;;12.90;;
22939;SDS011;11636;52.086;5.090;2023-06-22T16:50:16;13.43;;;11.25;;
22939;SDS011;11636;52.086;5.090;2023-06-22T16:53:10;10.63;;;9.00;;
22939;SDS011;11636;52.086;5.090;2023-06-22T16:56:04;12.15;;;10.65;;
22939;SDS011;11636;52.086;5.090;2023-06-22T16:58:52;11.43;;;9.95;;
22939;SDS011;11636;52.086;5.090;2023-06-22T17:01:51;10.82;;;9.73;;
22939;SDS011;11636;52.086;5.090;2023-06-22T17:04:40;11.55;;;10.27;;
22939;SDS011;11636;52.086;5.090;2023-06-22T17:07:38;11.10;;;9.52;;
22939;SDS011;11636;52.086;5.090;2023-06-22T17:10:36;11.20;;;10.02;;
22939;SDS011;11636;52.086;5.090;2023-06-22T17:13:23;11.38;;;10.18;;